createdAt,value
2018-05-04T00:02:19.454Z,5.33
2018-05-04T00:04:49.530Z,5.60
2018-05-04T00:07:19.624Z,6.70
2018-05-04T00:09:49.895Z,7.75
2018-05-04T00:12:21.090Z,5.82
2018-05-04T00:14:51.955Z,5.93
2018-05-04T00:17:22.354Z,6.05
2018-05-04T00:19:53.213Z,6.57
2018-05-04T00:22:23.810Z,5.43
2018-05-04T00:24:54.670Z,6.80
2018-05-04T00:27:25.276Z,6.20
2018-05-04T00:29:55.736Z,6.25
2018-05-04T00:32:25.806Z,5.70
2018-05-04T00:34:56.223Z,5.72
2018-05-04T00:37:26.290Z,8.07
2018-05-04T00:39:56.924Z,6.25
2018-05-04T00:42:27.351Z,6.57
2018-05-04T00:44:58.203Z,6.07
2018-05-04T00:47:28.607Z,6.10
2018-05-04T00:49:58.694Z,6.40
2018-05-04T00:52:29.286Z,5.32
2018-05-04T00:54:59.398Z,5.30
2018-05-04T00:57:29.828Z,5.72
2018-05-04T01:00:00.451Z,5.05
2018-05-04T01:02:31.285Z,6.07
2018-05-04T01:05:02.781Z,5.60
2018-05-04T01:07:33.386Z,5.10
2018-05-04T01:10:04.286Z,5.13
2018-05-04T01:12:34.962Z,5.40
2018-05-04T01:15:05.810Z,5.37
2018-05-04T01:17:36.623Z,5.03
2018-05-04T01:20:06.221Z,5.83
2018-05-04T01:22:36.402Z,5.00
2018-05-04T01:25:06.495Z,4.97
2018-05-04T01:27:36.898Z,5.28
2018-05-04T01:30:06.983Z,5.23
2018-05-04T01:32:37.574Z,5.28
2018-05-04T01:35:08.430Z,4.87
2018-05-04T01:37:38.870Z,5.90
2018-05-04T01:40:09.470Z,4.80
2018-05-04T01:42:40.055Z,4.90
2018-05-04T01:45:10.507Z,6.55
2018-05-04T01:47:41.079Z,4.78
2018-05-04T01:50:11.482Z,4.20
2018-05-04T01:52:41.559Z,5.60
2018-05-04T01:55:11.675Z,4.80
2018-05-04T01:57:42.055Z,5.07
2018-05-04T02:00:12.618Z,4.57
2018-05-04T02:02:42.710Z,4.43
2018-05-04T02:05:13.129Z,4.80
2018-05-04T02:07:43.817Z,4.10
2018-05-04T02:10:14.048Z,5.37
2018-05-04T02:12:44.614Z,4.80
2018-05-04T02:15:15.255Z,4.10
2018-05-04T02:17:45.672Z,4.60
2018-05-04T02:20:15.860Z,4.43
2018-05-04T02:22:46.522Z,4.20
2018-05-04T02:25:17.175Z,4.10
2018-05-04T02:27:48.306Z,4.25
2018-05-04T02:30:19.708Z,4.62
2018-05-04T02:32:50.315Z,3.90
2018-05-04T02:35:20.429Z,4.33
2018-05-04T02:37:51.850Z,4.32
2018-05-04T02:40:21.939Z,4.47
2018-05-04T02:42:52.629Z,4.10
2018-05-04T02:45:22.736Z,4.30
2018-05-04T02:47:52.832Z,4.33
2018-05-04T02:50:23.516Z,4.18
2018-05-04T02:52:54.838Z,4.35
2018-05-04T02:55:25.496Z,3.97
2018-05-04T02:57:56.290Z,4.18
2018-05-04T03:00:26.743Z,4.43
2018-05-04T03:02:57.591Z,6.80
2018-05-04T03:05:28.961Z,4.40
2018-05-04T03:07:59.566Z,4.03
2018-05-04T03:10:30.207Z,3.75
2018-05-04T03:13:00.817Z,3.85
2018-05-04T03:15:31.455Z,3.67
2018-05-04T03:18:02.070Z,4.05
2018-05-04T03:20:33.478Z,3.70
2018-05-04T03:23:03.902Z,4.18
2018-05-04T03:25:34.591Z,4.00
2018-05-04T03:28:05.973Z,3.90
2018-05-04T03:30:36.603Z,4.00
2018-05-04T03:33:07.219Z,3.67
2018-05-04T03:35:38.611Z,4.30
2018-05-04T03:38:09.205Z,4.03
2018-05-04T03:40:39.843Z,4.30
2018-05-04T03:43:10.450Z,4.28
2018-05-04T03:45:41.841Z,3.92
2018-05-04T03:48:13.592Z,4.77
2018-05-04T03:50:44.035Z,3.95
2018-05-04T03:53:14.865Z,4.30
2018-05-04T03:55:45.222Z,5.10
2018-05-04T03:58:32.763Z,4.53
2018-05-04T04:01:20.574Z,3.55
2018-05-04T04:04:17.482Z,3.75
2018-05-04T04:06:48.670Z,4.53
2018-05-04T04:09:19.278Z,3.50
2018-05-04T04:11:49.906Z,3.33
2018-05-04T04:14:21.063Z,3.85
2018-05-04T04:16:51.690Z,3.30
2018-05-04T04:19:23.131Z,3.67
2018-05-04T04:21:53.567Z,3.72
2018-05-04T04:24:24.178Z,3.47
2018-05-04T04:26:54.299Z,5.00
2018-05-04T04:29:24.874Z,5.30
2018-05-04T04:31:55.731Z,9.30
2018-05-04T04:34:27.145Z,12.10
2018-05-04T04:36:57.918Z,18.10
2018-05-04T04:39:28.543Z,22.02
2018-05-04T04:42:00.003Z,23.73
2018-05-04T04:44:32.152Z,23.05
2018-05-04T04:47:02.803Z,20.05
2018-05-04T04:49:33.410Z,19.37
2018-05-04T04:52:04.146Z,15.52
2018-05-04T04:54:34.819Z,15.05
2018-05-04T04:57:06.258Z,10.73
2018-05-04T04:59:36.655Z,9.45
2018-05-04T05:02:07.518Z,8.47
2018-05-04T05:04:38.217Z,7.65
2018-05-04T05:07:08.307Z,5.93
2018-05-04T05:09:38.716Z,8.68
2018-05-04T05:12:09.326Z,4.65
2018-05-04T05:14:39.715Z,6.95
2018-05-04T05:17:14.197Z,4.30
2018-05-04T05:19:44.814Z,6.35
2018-05-04T05:22:15.695Z,5.90
2018-05-04T05:24:46.385Z,3.83
2018-05-04T05:27:17.028Z,3.65
2018-05-04T05:29:47.129Z,4.93
2018-05-04T05:32:18.609Z,3.53
2018-05-04T05:34:49.218Z,4.28
2018-05-04T05:37:19.847Z,3.53
2018-05-04T05:39:50.675Z,4.60
2018-05-04T05:42:22.227Z,6.90
2018-05-04T05:44:52.471Z,9.97
2018-05-04T05:47:23.158Z,12.88
2018-05-04T05:49:53.838Z,11.98
2018-05-04T05:52:24.521Z,12.00
2018-05-04T05:54:55.915Z,11.18
2018-05-04T05:57:26.788Z,9.33
2018-05-04T05:59:57.233Z,8.93
2018-05-04T06:02:27.341Z,7.90
2018-05-04T06:04:57.954Z,7.55
2018-05-04T06:07:28.046Z,7.30
2018-05-04T06:09:58.509Z,7.60
2018-05-04T06:12:28.366Z,8.07
2018-05-04T06:14:58.423Z,7.27
2018-05-04T06:17:29.507Z,12.82
2018-05-04T06:20:01.755Z,13.70
2018-05-04T06:22:32.635Z,15.20
2018-05-04T06:25:03.312Z,13.20
2018-05-04T06:27:33.926Z,10.70
2018-05-04T06:30:04.567Z,12.45
2018-05-04T06:32:35.242Z,13.10
2018-05-04T06:35:05.862Z,11.32
2018-05-04T06:37:36.530Z,12.70
2018-05-04T06:40:07.185Z,12.48
2018-05-04T06:42:37.852Z,13.73
2018-05-04T06:45:08.722Z,13.68
2018-05-04T06:47:39.453Z,13.85
2018-05-04T06:50:10.138Z,14.90
2018-05-04T06:52:40.826Z,11.88
2018-05-04T06:55:11.548Z,15.75
2018-05-04T06:57:43.010Z,11.43
2018-05-04T07:00:14.439Z,13.48
2018-05-04T07:02:45.127Z,13.07
2018-05-04T07:05:15.806Z,11.25
2018-05-04T07:07:47.287Z,13.43
2018-05-04T07:10:18.867Z,12.63
2018-05-04T07:12:49.595Z,13.60
2018-05-04T07:15:20.287Z,11.95
2018-05-04T07:17:51.749Z,12.45
2018-05-04T07:20:22.454Z,13.23
2018-05-04T07:22:53.142Z,12.57
2018-05-04T07:25:23.842Z,13.00
2018-05-04T07:27:55.307Z,11.45
2018-05-04T07:30:26.955Z,13.05
2018-05-04T07:32:57.636Z,11.65
2018-05-04T07:35:28.312Z,12.13
2018-05-04T07:37:58.752Z,10.77
2018-05-04T07:40:29.392Z,11.45
2018-05-04T07:42:59.870Z,11.60
2018-05-04T07:45:30.555Z,11.68
2018-05-04T07:48:01.231Z,10.95
2018-05-04T07:50:31.923Z,12.88
2018-05-04T07:53:02.614Z,11.88
2018-05-04T07:55:33.299Z,11.18
2018-05-04T07:58:04.535Z,11.40
2018-05-04T08:00:35.227Z,11.38
2018-05-04T08:03:06.844Z,13.23
2018-05-04T08:05:38.272Z,10.98
2018-05-04T08:08:08.941Z,11.95
2018-05-04T08:10:40.355Z,11.10
2018-05-04T08:13:11.835Z,11.27
2018-05-04T08:15:42.250Z,13.00
2018-05-04T08:18:12.912Z,10.63
2018-05-04T08:20:43.298Z,9.80
2018-05-04T08:23:13.947Z,10.80
2018-05-04T08:25:44.587Z,10.15
2018-05-04T08:28:15.240Z,10.50
2018-05-04T08:30:45.671Z,10.07
2018-05-04T08:33:17.163Z,11.88
2018-05-04T08:35:47.590Z,10.13
2018-05-04T08:38:18.462Z,9.57
2018-05-04T08:40:48.634Z,9.83
2018-05-04T08:43:18.831Z,9.40
2018-05-04T08:45:48.929Z,9.60
2018-05-04T08:48:19.077Z,9.53
2018-05-04T08:50:50.431Z,9.52
2018-05-04T08:53:20.690Z,9.50
2018-05-04T08:55:51.558Z,9.73
2018-05-04T08:58:22.012Z,8.80
2018-05-04T09:00:52.086Z,9.00
2018-05-04T09:03:22.716Z,9.65
2018-05-04T09:05:53.133Z,9.93
2018-05-04T09:08:23.233Z,9.07
2018-05-04T09:10:53.938Z,10.35
2018-05-04T09:13:24.030Z,8.80
2018-05-04T09:15:54.466Z,8.55
2018-05-04T09:18:24.746Z,8.93
2018-05-04T09:20:55.359Z,8.32
2018-05-04T09:23:25.450Z,8.53
2018-05-04T09:25:55.863Z,9.43
2018-05-04T09:28:26.731Z,7.83
2018-05-04T09:30:57.166Z,8.63
2018-05-04T09:33:27.452Z,8.93
2018-05-04T09:35:57.849Z,8.38
2018-05-04T09:38:27.948Z,8.40
2018-05-04T09:40:58.358Z,8.18
2018-05-04T09:43:28.526Z,7.80
2018-05-04T09:45:59.061Z,7.50
2018-05-04T09:48:29.155Z,7.73
2018-05-04T09:50:59.578Z,8.40
2018-05-04T09:53:29.680Z,7.90
2018-05-04T09:56:00.158Z,7.68
2018-05-04T09:58:30.375Z,7.13
2018-05-04T10:01:00.778Z,8.15
2018-05-04T10:03:30.884Z,7.60
2018-05-04T10:06:01.466Z,7.68
2018-05-04T10:08:31.550Z,7.47
2018-05-04T10:11:01.633Z,7.43
2018-05-04T10:13:31.811Z,8.05
2018-05-04T10:16:01.906Z,7.13
2018-05-04T10:18:32.511Z,7.20
2018-05-04T10:21:03.343Z,6.97
2018-05-04T10:23:33.771Z,7.72
2018-05-04T10:26:04.611Z,8.07
2018-05-04T10:28:35.032Z,7.28
2018-05-04T10:31:05.104Z,6.90
2018-05-04T10:33:35.195Z,8.13
2018-05-04T10:36:05.899Z,6.75
2018-05-04T10:38:36.023Z,7.20
2018-05-04T10:41:06.325Z,6.93
2018-05-04T10:43:36.219Z,7.27
2018-05-04T10:46:06.919Z,6.72
2018-05-04T10:48:37.824Z,6.50
2018-05-04T10:51:09.301Z,6.75
2018-05-04T10:53:39.406Z,7.10
2018-05-04T10:56:10.338Z,6.65
2018-05-04T10:58:40.210Z,7.23
2018-05-04T11:01:10.609Z,7.65
2018-05-04T11:03:41.072Z,6.50
2018-05-04T11:06:11.131Z,6.17
2018-05-04T11:08:41.254Z,6.93
2018-05-04T11:11:11.339Z,6.43
2018-05-04T11:13:41.772Z,6.32
2018-05-04T11:16:11.838Z,7.37
2018-05-04T11:18:42.270Z,6.35
2018-05-04T11:21:12.339Z,6.10
2018-05-04T11:23:42.442Z,5.93
2018-05-04T11:26:12.531Z,5.70
2018-05-04T11:28:43.708Z,6.35
2018-05-04T11:31:13.784Z,6.50
2018-05-04T11:33:44.738Z,7.15
2018-05-04T11:36:15.578Z,6.17
2018-05-04T11:38:46.453Z,6.00
2018-05-04T11:41:16.798Z,5.93
2018-05-04T11:43:46.885Z,5.73
2018-05-04T11:46:16.962Z,5.53
2018-05-04T11:48:48.168Z,6.07
2018-05-04T11:51:18.234Z,6.23
2018-05-04T11:53:49.426Z,6.60
2018-05-04T11:56:20.034Z,5.35
2018-05-04T11:58:50.902Z,5.83
2018-05-04T12:01:21.295Z,5.57
2018-05-04T12:03:51.386Z,6.40
2018-05-04T12:06:21.819Z,5.65
2018-05-04T12:08:53.223Z,5.37
2018-05-04T12:11:23.289Z,5.50
2018-05-04T12:13:54.027Z,5.60
2018-05-04T12:16:24.176Z,5.27
2018-05-04T12:18:55.034Z,5.35
2018-05-04T12:21:25.862Z,5.00
2018-05-04T12:23:56.715Z,5.87
2018-05-04T12:26:27.431Z,5.40
2018-05-04T12:28:58.796Z,4.90
2018-05-04T12:31:29.399Z,5.20
2018-05-04T12:34:00.260Z,5.30
2018-05-04T12:36:30.660Z,5.72
2018-05-04T12:39:01.287Z,4.93
2018-05-04T12:41:31.358Z,7.33
2018-05-04T12:44:03.321Z,5.87
2018-05-04T12:46:33.686Z,5.12
2018-05-04T12:49:03.536Z,5.30
2018-05-04T12:51:33.928Z,6.10
2018-05-04T12:54:04.570Z,5.25
2018-05-04T12:56:34.411Z,6.10
2018-05-04T12:59:05.894Z,5.43
2018-05-04T13:01:35.957Z,5.80
2018-05-04T13:04:07.159Z,5.45
2018-05-04T13:06:37.229Z,8.23
2018-05-04T13:09:06.963Z,6.07
2018-05-04T13:11:37.040Z,6.13
2018-05-04T13:14:07.435Z,6.12
2018-05-04T13:16:37.499Z,5.07
2018-05-04T13:19:07.583Z,5.70
2018-05-04T13:21:38.193Z,5.35
2018-05-04T13:24:09.075Z,5.50
2018-05-04T13:26:39.139Z,5.63
2018-05-04T13:29:09.255Z,5.83
2018-05-04T13:31:39.683Z,5.12
2018-05-04T13:34:10.150Z,5.72
2018-05-04T13:36:40.419Z,5.77
2018-05-04T13:39:11.623Z,5.35
2018-05-04T13:41:41.714Z,6.63
2018-05-04T13:44:12.146Z,5.70
2018-05-04T13:46:42.434Z,5.00
2018-05-04T13:49:12.539Z,6.00
2018-05-04T13:51:42.941Z,6.35
2018-05-04T13:54:13.040Z,6.77
2018-05-04T13:56:43.890Z,5.80
2018-05-04T13:59:14.315Z,5.28
2018-05-04T14:01:44.925Z,6.00
2018-05-04T14:04:15.044Z,6.00
2018-05-04T14:06:45.977Z,6.95
2018-05-04T14:09:16.079Z,6.10
2018-05-04T14:11:46.489Z,6.30
2018-05-04T14:14:18.003Z,6.17
2018-05-04T14:16:48.410Z,5.95
2018-05-04T14:19:18.511Z,6.07
2018-05-04T14:21:49.208Z,8.43
2018-05-04T14:24:19.294Z,5.40
2018-05-04T14:26:50.471Z,6.30
2018-05-04T14:29:20.573Z,5.60
2018-05-04T14:31:50.973Z,5.93
2018-05-04T14:34:21.070Z,6.20
2018-05-04T14:36:51.483Z,6.47
2018-05-04T14:39:21.616Z,6.20
2018-05-04T14:41:52.025Z,6.12
2018-05-04T14:44:22.107Z,6.67
2018-05-04T14:46:53.275Z,7.22
2018-05-04T14:49:24.146Z,6.00
2018-05-04T14:51:54.553Z,6.35
2018-05-04T14:54:25.414Z,6.50
2018-05-04T14:56:56.924Z,6.07
2018-05-04T14:59:27.784Z,6.80
2018-05-04T15:01:57.631Z,6.67
2018-05-04T15:04:28.068Z,6.65
2018-05-04T15:06:58.133Z,6.50
2018-05-04T15:09:28.568Z,6.82
2018-05-04T15:11:59.446Z,7.13
2018-05-04T15:14:30.039Z,6.45
2018-05-04T15:17:00.638Z,6.70
2018-05-04T15:19:31.835Z,6.57
2018-05-04T15:22:01.901Z,6.20
2018-05-04T15:24:33.100Z,6.22
2018-05-04T15:27:03.170Z,5.53
2018-05-04T15:29:34.674Z,5.90
2018-05-04T15:32:04.739Z,5.73
2018-05-04T15:34:35.606Z,6.53
2018-05-04T15:37:06.021Z,6.60
2018-05-04T15:39:36.130Z,6.30
2018-05-04T15:42:07.294Z,6.82
2018-05-04T15:44:37.377Z,6.40
2018-05-04T15:47:07.786Z,6.60
2018-05-04T15:49:37.882Z,6.43
2018-05-04T15:52:08.586Z,7.15
2018-05-04T15:54:38.726Z,6.07
2018-05-04T15:57:09.288Z,8.52
2018-05-04T15:59:39.431Z,8.47
2018-05-04T16:02:09.842Z,5.75
2018-05-04T16:04:39.922Z,7.30
2018-05-04T16:07:10.118Z,8.95
2018-05-04T16:09:40.214Z,7.93
2018-05-04T16:12:10.932Z,9.88
2018-05-04T16:14:41.028Z,7.57
2018-05-04T16:17:11.443Z,8.30
2018-05-04T16:19:41.555Z,8.87
2018-05-04T16:22:12.800Z,7.03
2018-05-04T16:24:43.786Z,8.70
2018-05-04T16:27:14.499Z,7.43
2018-05-04T16:29:44.596Z,6.50
2018-05-04T16:32:14.682Z,7.40
2018-05-04T16:34:45.147Z,7.78
2018-05-04T16:37:15.217Z,7.80
2018-05-04T16:39:45.671Z,7.07
2018-05-04T16:42:15.748Z,6.83
2018-05-04T16:44:46.199Z,6.30
2018-05-04T16:47:21.493Z,11.37
2018-05-04T16:49:51.939Z,8.82
2018-05-04T16:52:23.107Z,11.30
2018-05-04T16:54:53.749Z,7.47
2018-05-04T16:57:25.368Z,11.40
2018-05-04T16:59:55.575Z,7.22
2018-05-04T17:02:26.515Z,11.15
2018-05-04T17:04:56.975Z,11.25
2018-05-04T17:07:27.591Z,6.70
2018-05-04T17:09:57.807Z,7.32
2018-05-04T17:12:27.893Z,7.47
2018-05-04T17:14:58.094Z,7.12
2018-05-04T17:17:28.151Z,5.13
2018-05-04T17:19:58.023Z,7.10
2018-05-04T17:22:28.334Z,4.60
2018-05-04T17:24:58.435Z,5.40
2018-05-04T17:27:28.785Z,4.50
2018-05-04T17:29:59.003Z,7.53
2018-05-04T17:32:29.070Z,6.10
2018-05-04T17:34:59.334Z,5.93
2018-05-04T17:37:30.491Z,5.93
2018-05-04T17:40:01.863Z,5.15
2018-05-04T17:42:31.942Z,7.77
2018-05-04T17:45:02.034Z,4.90
2018-05-04T17:47:32.773Z,5.07
2018-05-04T17:50:03.539Z,5.00
2018-05-04T17:52:34.415Z,4.57
2018-05-04T17:55:04.845Z,5.28
2018-05-04T17:57:35.103Z,4.97
2018-05-04T18:00:05.195Z,5.63
2018-05-04T18:02:35.258Z,6.67
2018-05-04T18:05:05.363Z,5.73
2018-05-04T18:07:35.959Z,5.25
2018-05-04T18:10:06.595Z,5.53
2018-05-04T18:12:36.670Z,5.60
2018-05-04T18:15:07.403Z,7.80
2018-05-04T18:17:37.484Z,6.73
2018-05-04T18:20:08.110Z,5.25
2018-05-04T18:22:38.178Z,6.07
2018-05-04T18:25:08.759Z,4.87
2018-05-04T18:27:38.861Z,5.27
2018-05-04T18:30:09.590Z,5.25
2018-05-04T18:32:40.967Z,4.75
2018-05-04T18:35:11.079Z,4.80
2018-05-04T18:37:41.803Z,5.40
2018-05-04T18:40:12.418Z,5.18
2018-05-04T18:42:42.507Z,5.90
2018-05-04T18:45:13.254Z,5.68
2018-05-04T18:47:44.461Z,4.95
2018-05-04T18:50:14.902Z,5.03
2018-05-04T18:52:44.773Z,6.03
2018-05-04T18:55:15.382Z,6.40
2018-05-04T18:57:46.411Z,5.00
2018-05-04T19:00:16.497Z,5.23
2018-05-04T19:02:52.225Z,5.07
2018-05-04T19:05:22.667Z,4.62
2018-05-04T19:07:53.510Z,7.07
2018-05-04T19:10:24.129Z,4.72
2018-05-04T19:12:54.542Z,4.78
2018-05-04T19:15:25.145Z,5.12
2018-05-04T19:17:55.207Z,4.73
2018-05-04T19:20:25.550Z,4.57
2018-05-04T19:22:56.269Z,4.53
2018-05-04T19:25:27.038Z,4.50
2018-05-04T19:27:57.125Z,4.40
2018-05-04T19:30:27.886Z,4.32
2018-05-04T19:32:58.310Z,4.60
2018-05-04T19:35:29.658Z,4.47
2018-05-04T19:38:01.014Z,4.45
2018-05-04T19:40:31.124Z,5.73
2018-05-04T19:43:01.814Z,4.75
2018-05-04T19:45:32.448Z,4.65
2018-05-04T19:48:03.054Z,5.05
2018-05-04T19:50:34.537Z,5.07
2018-05-04T19:53:05.126Z,4.40
2018-05-04T19:55:36.496Z,4.75
2018-05-04T19:58:07.109Z,4.18
2018-05-04T20:00:37.514Z,4.20
2018-05-04T20:03:08.129Z,4.05
2018-05-04T20:05:38.771Z,4.10
2018-05-04T20:08:09.267Z,5.12
2018-05-04T20:10:39.903Z,3.85
2018-05-04T20:13:09.979Z,5.67
2018-05-04T20:15:40.741Z,4.68
2018-05-04T20:18:11.339Z,5.85
2018-05-04T20:20:41.943Z,4.28
2018-05-04T20:23:13.315Z,4.05
2018-05-04T20:25:43.741Z,4.10
2018-05-04T20:28:14.366Z,4.00
2018-05-04T20:30:45.755Z,4.22
2018-05-04T20:33:16.319Z,4.75
2018-05-04T20:35:46.766Z,4.03
2018-05-04T20:38:16.601Z,4.43
2018-05-04T20:40:47.834Z,5.28
2018-05-04T20:43:17.908Z,5.50
2018-05-04T20:45:48.008Z,4.67
2018-05-04T20:48:18.654Z,4.20
2018-05-04T20:50:49.078Z,4.25
2018-05-04T20:53:19.702Z,3.97
2018-05-04T20:55:50.430Z,4.12
2018-05-04T20:58:21.022Z,4.28
2018-05-04T21:00:51.622Z,4.55
2018-05-04T21:03:22.239Z,4.28
2018-05-04T21:05:52.354Z,6.07
2018-05-04T21:08:23.019Z,4.07
2018-05-04T21:10:53.651Z,4.00
2018-05-04T21:13:24.267Z,5.55
2018-05-04T21:15:54.906Z,4.00
2018-05-04T21:18:25.462Z,4.50
2018-05-04T21:20:56.088Z,4.32
2018-05-04T21:23:26.161Z,4.37
2018-05-04T21:25:56.605Z,4.20
2018-05-04T21:28:27.194Z,4.70
2018-05-04T21:30:57.639Z,4.20
2018-05-04T21:33:28.492Z,4.13
2018-05-04T21:35:58.644Z,4.13
2018-05-04T21:38:29.283Z,5.62
2018-05-04T21:41:00.094Z,5.37
2018-05-04T21:43:30.725Z,3.92
2018-05-04T21:46:02.121Z,4.70
2018-05-04T21:48:32.221Z,4.27
2018-05-04T21:51:02.693Z,4.10
2018-05-04T21:53:34.088Z,4.33
2018-05-04T21:56:03.961Z,6.23
2018-05-04T21:58:34.618Z,4.07
2018-05-04T22:01:05.980Z,4.60
2018-05-04T22:03:37.307Z,4.97
2018-05-04T22:06:07.747Z,4.18
2018-05-04T22:08:38.360Z,4.22
2018-05-04T22:11:08.791Z,3.95
2018-05-04T22:13:40.163Z,4.43
2018-05-04T22:16:10.781Z,4.43
2018-05-04T22:18:41.175Z,4.12
2018-05-04T22:21:12.344Z,3.95
2018-05-04T22:23:42.965Z,4.03
2018-05-04T22:26:13.415Z,3.75
2018-05-04T22:28:44.768Z,4.40
2018-05-04T22:31:15.212Z,3.70
2018-05-04T22:33:45.833Z,4.00
2018-05-04T22:36:16.278Z,3.70
2018-05-04T22:38:46.896Z,4.10
2018-05-04T22:41:18.962Z,3.87
2018-05-04T22:43:49.796Z,5.53
2018-05-04T22:46:21.479Z,3.70
2018-05-04T22:48:52.087Z,4.07
2018-05-04T22:51:22.537Z,3.55
2018-05-04T22:53:52.966Z,4.07
2018-05-04T22:56:23.574Z,5.03
2018-05-04T22:58:54.008Z,3.85
2018-05-04T23:01:24.650Z,3.67
2018-05-04T23:03:55.267Z,3.85
2018-05-04T23:06:25.672Z,3.75
2018-05-04T23:08:55.761Z,4.37
2018-05-04T23:11:25.863Z,5.13
2018-05-04T23:13:56.545Z,3.30
2018-05-04T23:16:27.752Z,4.75
2018-05-04T23:18:58.365Z,3.30
2018-05-04T23:21:29.013Z,4.10
2018-05-04T23:23:59.299Z,4.97
2018-05-04T23:26:29.999Z,3.67
2018-05-04T23:29:00.630Z,4.32
2018-05-04T23:31:31.841Z,4.20
2018-05-04T23:34:02.659Z,3.83
2018-05-04T23:36:33.106Z,3.53
2018-05-04T23:39:03.487Z,3.22
2018-05-04T23:41:34.900Z,3.30
2018-05-04T23:44:05.506Z,4.10
2018-05-04T23:46:35.958Z,4.78
2018-05-04T23:49:06.363Z,4.35
2018-05-04T23:51:37.015Z,3.30
2018-05-04T23:54:07.394Z,4.22
2018-05-04T23:56:38.803Z,3.40
2018-05-04T23:59:09.816Z,3.37
